Terminal Aerodrome Forecast
Issued by NWS

Home | Current Version | Previous Version | Text Only | Print | Product List | Glossary On
Versions: 1 2 3 4 5 6 7 8 9 10 11 12 13 14 15 16 17
980
FTUS43 KIND 260520
TAFHUF
TAF
KHUF 260520Z 2606/2706 02003KT P6SM SCT035 BKN250
     FM260800 04002KT 4SM BR SCT040 BKN150
     FM261400 09005KT P6SM SCT040 BKN200
     FM261900 VRB05KT P6SM BKN040
     FM270100 06002KT P6SM SCT050 BKN200=

USA.gov is the U.S. government's official web portal to all federal, state and local government web resources and services.